Time;durP1;ratioP1;P1;durP2;ratioP2;P2;SDS_P1;SDS_P2;PMS_P1;PMS_P2;Temp;Humidity;BMP_temperature;BMP_pressure;BME280_temperature;BME280_humidity;BME280_pressure;Samples;Min_cycle;Max_cycle;Signal;HPM_P1;HPM_P2
2022/04/15 00:00:11;;;;;;;8.40;1.10;;;10.50;99.90;;;;;;5037006;28;20481;-69
2022/04/15 00:02:59;;;;;;;1.80;1.70;;;10.40;99.90;;;;;;5034495;28;20492;-69
2022/04/15 00:05:51;;;;;;;0.40;0.40;;;10.30;99.90;;;;;;5036314;28;20425;-70
2022/04/15 00:08:40;;;;;;;0.40;0.40;;;10.10;99.90;;;;;;5036920;28;20528;-69
2022/04/15 00:11:31;;;;;;;0.50;0.50;;;10.20;99.90;;;;;;5035389;28;20457;-68
2022/04/15 00:14:20;;;;;;;0.60;0.60;;;10.20;99.90;;;;;;5035908;28;20542;-69
2022/04/15 00:17:08;;;;;;;2.90;2.77;;;10.30;99.90;;;;;;5036576;28;20436;-69
2022/04/15 00:19:56;;;;;;;3.00;2.67;;;10.30;99.90;;;;;;5035418;28;20421;-69
2022/04/15 00:22:45;;;;;;;1.53;1.17;;;10.30;99.90;;;;;;5035115;28;20448;-69
2022/04/15 00:25:33;;;;;;;0.80;0.80;;;10.30;99.90;;;;;;5035410;28;20968;-70
2022/04/15 00:28:22;;;;;;;1.63;1.53;;;10.40;99.90;;;;;;5035705;28;20452;-70
2022/04/15 00:31:11;;;;;;;0.97;0.73;;;10.40;99.90;;;;;;5036379;28;20665;-68
2022/04/15 00:33:59;;;;;;;2.93;2.63;;;10.40;99.90;;;;;;5036774;28;20425;-69
2022/04/15 00:36:47;;;;;;;1.40;1.30;;;10.40;99.90;;;;;;5035402;28;20433;-68
2022/04/15 00:39:38;;;;;;;0.50;0.50;;;10.40;99.90;;;;;;5036455;28;20476;-68
2022/04/15 00:42:26;;;;;;;1.33;1.23;;;10.40;99.90;;;;;;5036810;28;20534;-69
2022/04/15 00:45:14;;;;;;;0.40;0.40;;;10.40;99.90;;;;;;5036199;28;20438;-69
2022/04/15 00:48:04;;;;;;;0.50;0.50;;;10.30;99.90;;;;;;5037178;28;20458;-68
2022/04/15 00:50:52;;;;;;;0.70;0.70;;;10.20;99.90;;;;;;5035632;28;20468;-70
2022/04/15 00:53:42;;;;;;;0.40;0.40;;;10.20;99.90;;;;;;5036417;28;20500;-69
2022/04/15 00:56:34;;;;;;;1.13;0.70;;;10.10;99.90;;;;;;5036776;28;20433;-68
2022/04/15 00:59:24;;;;;;;1.00;1.00;;;10.10;99.90;;;;;;5037359;28;20418;-69
2022/04/15 01:02:17;;;;;;;1.00;1.00;;;10.00;99.90;;;;;;5037280;28;20441;-68
2022/04/15 01:05:10;;;;;;;1.73;1.63;;;10.00;99.90;;;;;;5035201;28;20425;-69
2022/04/15 01:08:00;;;;;;;1.23;1.13;;;10.00;99.90;;;;;;5037462;28;20432;-70
2022/04/15 01:10:49;;;;;;;2.90;2.70;;;9.90;99.90;;;;;;5035937;28;21013;-69
2022/04/15 01:13:38;;;;;;;3.60;1.33;;;9.80;99.90;;;;;;5035659;28;20491;-68
2022/04/15 01:16:28;;;;;;;4.00;2.83;;;9.80;99.90;;;;;;5035874;28;20426;-71
2022/04/15 01:19:16;;;;;;;1.77;1.63;;;9.70;99.90;;;;;;5035677;28;20428;-69
2022/04/15 01:22:12;;;;;;;5.23;2.10;;;9.70;99.90;;;;;;5034973;28;20515;-69
2022/04/15 01:25:01;;;;;;;1.53;1.37;;;9.70;99.90;;;;;;5034191;28;20429;-68
2022/04/15 01:27:50;;;;;;;2.27;1.50;;;9.70;99.90;;;;;;5032877;28;20433;-69
2022/04/15 01:30:38;;;;;;;0.80;0.80;;;9.60;99.90;;;;;;5033949;28;20460;-71
2022/04/15 01:33:26;;;;;;;0.60;0.60;;;9.60;99.90;;;;;;5032241;28;20926;-71
2022/04/15 01:36:15;;;;;;;1.77;1.67;;;9.60;99.90;;;;;;5024227;28;20521;-70
2022/04/15 01:39:03;;;;;;;0.50;0.50;;;9.50;99.90;;;;;;5027871;28;20435;-69
2022/04/15 01:41:53;;;;;;;2.60;2.50;;;9.40;99.90;;;;;;5013207;28;20446;-69
2022/04/15 01:44:42;;;;;;;3.97;1.80;;;9.30;99.90;;;;;;5014480;28;20430;-70
2022/04/15 01:47:30;;;;;;;1.60;1.50;;;9.20;99.90;;;;;;5013712;28;20422;-68
2022/04/15 01:50:18;;;;;;;1.23;0.70;;;9.00;99.90;;;;;;5013487;28;20989;-70
2022/04/15 01:53:06;;;;;;;0.53;0.53;;;9.00;99.90;;;;;;5013798;28;20509;-68
2022/04/15 01:55:55;;;;;;;3.20;2.67;;;9.00;99.90;;;;;;5015056;28;20433;-70
2022/04/15 01:58:45;;;;;;;4.17;2.10;;;8.90;99.90;;;;;;5013102;28;20438;-70
2022/04/15 02:01:33;;;;;;;0.90;0.80;;;8.80;99.90;;;;;;5014967;28;20799;-69
2022/04/15 02:04:21;;;;;;;4.13;2.50;;;8.70;99.90;;;;;;5019323;28;20429;-70
2022/04/15 02:07:09;;;;;;;4.23;2.07;;;8.70;99.90;;;;;;5018992;28;20942;-69
2022/04/15 02:09:57;;;;;;;3.60;3.13;;;8.70;99.90;;;;;;5018477;28;20434;-69
2022/04/15 02:12:45;;;;;;;3.43;3.17;;;8.70;99.90;;;;;;5017582;28;20504;-69
2022/04/15 02:15:35;;;;;;;0.60;0.60;;;8.70;99.90;;;;;;5017926;28;20445;-70
2022/04/15 02:18:25;;;;;;;1.43;1.33;;;8.60;99.90;;;;;;5022264;28;20864;-69
2022/04/15 02:21:13;;;;;;;2.60;2.40;;;8.70;99.90;;;;;;5019900;28;20426;-69
2022/04/15 02:24:01;;;;;;;10.83;2.73;;;8.60;99.90;;;;;;5020364;28;20861;-69
2022/04/15 02:26:49;;;;;;;2.20;2.00;;;8.50;99.90;;;;;;5018795;28;20414;-69
2022/04/15 02:29:37;;;;;;;7.07;3.80;;;8.50;99.90;;;;;;5017910;28;20514;-68
2022/04/15 02:32:29;;;;;;;5.80;3.37;;;8.50;99.90;;;;;;5017814;28;20850;-70
2022/04/15 02:35:17;;;;;;;3.70;3.23;;;8.50;99.90;;;;;;5017611;28;20937;-69
2022/04/15 02:38:06;;;;;;;2.23;2.10;;;8.40;99.90;;;;;;5018776;28;20422;-69
2022/04/15 02:40:54;;;;;;;4.43;2.83;;;8.40;99.90;;;;;;5018558;28;20421;-69
2022/04/15 02:43:42;;;;;;;1.27;0.67;;;8.40;99.90;;;;;;5017149;28;20497;-72
2022/04/15 02:46:30;;;;;;;1.10;1.00;;;8.50;99.90;;;;;;5018783;28;20429;-70
2022/04/15 02:49:20;;;;;;;2.93;2.00;;;8.40;99.90;;;;;;5019439;28;20434;-69
2022/04/15 02:52:08;;;;;;;5.20;0.80;;;8.40;99.90;;;;;;5018238;28;21036;-69
2022/04/15 02:54:56;;;;;;;1.70;1.07;;;8.40;99.90;;;;;;5017884;28;20430;-70
2022/04/15 02:57:44;;;;;;;2.43;2.30;;;8.30;99.90;;;;;;5017062;28;20430;-70
2022/04/15 03:00:33;;;;;;;1.90;1.80;;;8.40;99.90;;;;;;5017006;28;20437;-69
2022/04/15 03:03:21;;;;;;;1.33;0.70;;;8.40;99.90;;;;;;5017827;28;20441;-69
2022/04/15 03:06:10;;;;;;;0.47;0.47;;;8.40;99.90;;;;;;5018166;28;20429;-69
2022/04/15 03:08:59;;;;;;;5.90;2.20;;;8.50;99.90;;;;;;5018283;28;20778;-69
2022/04/15 03:11:47;;;;;;;1.00;0.60;;;8.50;99.90;;;;;;5017001;28;20461;-69
2022/04/15 03:14:35;;;;;;;3.77;2.87;;;8.50;99.90;;;;;;5016742;28;20441;-68
2022/04/15 03:17:23;;;;;;;0.53;0.53;;;8.50;99.90;;;;;;5016706;28;20500;-72
2022/04/15 03:20:13;;;;;;;0.40;0.40;;;8.50;99.90;;;;;;5017896;28;20433;-71
2022/04/15 03:23:02;;;;;;;0.53;0.53;;;8.50;99.90;;;;;;5017704;28;20442;-70
2022/04/15 03:25:51;;;;;;;6.03;1.47;;;8.50;99.90;;;;;;5031139;28;20437;-69
2022/04/15 03:28:39;;;;;;;3.03;2.13;;;8.50;99.90;;;;;;5037323;28;20422;-71
2022/04/15 03:31:27;;;;;;;1.10;1.00;;;8.50;99.90;;;;;;5036956;28;20465;-71
2022/04/15 03:34:16;;;;;;;0.40;0.40;;;8.50;99.90;;;;;;5037116;28;20433;-69
2022/04/15 03:37:04;;;;;;;1.63;1.30;;;8.60;99.90;;;;;;5036317;28;20436;-70
2022/04/15 03:39:54;;;;;;;3.67;2.00;;;8.60;99.90;;;;;;5036502;28;20433;-69
2022/04/15 03:42:46;;;;;;;1.87;1.77;;;8.60;99.90;;;;;;5036522;28;20992;-70
2022/04/15 03:45:34;;;;;;;4.37;1.97;;;8.60;99.90;;;;;;5036508;28;20796;-69
2022/04/15 03:48:22;;;;;;;0.40;0.40;;;8.60;99.90;;;;;;5035866;28;20433;-69
2022/04/15 03:51:11;;;;;;;1.13;1.13;;;8.50;99.90;;;;;;5034512;28;20479;-70
2022/04/15 03:53:59;;;;;;;4.20;4.00;;;8.50;99.90;;;;;;5035567;28;20444;-71
2022/04/15 03:56:48;;;;;;;0.80;0.80;;;8.50;99.90;;;;;;5035927;28;20429;-70
2022/04/15 03:59:36;;;;;;;0.50;0.50;;;8.50;99.90;;;;;;5035751;28;20480;-69
2022/04/15 04:02:24;;;;;;;1.90;1.80;;;8.50;99.90;;;;;;5036233;28;21000;-71
2022/04/15 04:05:13;;;;;;;2.40;2.20;;;8.60;99.90;;;;;;5036659;28;20476;-71
2022/04/15 04:08:01;;;;;;;2.60;2.00;;;8.50;99.90;;;;;;5037458;28;20674;-70
2022/04/15 04:10:50;;;;;;;2.10;0.97;;;8.50;99.90;;;;;;5037497;28;21137;-70
2022/04/15 04:13:39;;;;;;;0.60;0.60;;;8.60;99.90;;;;;;5036263;28;20644;-69
2022/04/15 04:16:27;;;;;;;4.57;2.30;;;8.60;99.90;;;;;;5037660;28;20436;-70
2022/04/15 04:19:16;;;;;;;5.70;1.53;;;8.60;99.90;;;;;;5038719;28;20441;-71
2022/04/15 04:22:05;;;;;;;1.50;1.40;;;8.40;99.90;;;;;;5039382;28;20452;-68
2022/04/15 04:24:53;;;;;;;1.07;1.00;;;8.50;99.90;;;;;;5040315;28;20840;-70
2022/04/15 04:27:43;;;;;;;1.53;1.10;;;8.50;99.90;;;;;;5041348;28;20432;-69
2022/04/15 04:30:32;;;;;;;0.50;0.50;;;8.50;99.90;;;;;;5042406;28;20428;-68
2022/04/15 04:33:20;;;;;;;1.63;1.53;;;8.50;99.90;;;;;;5040559;28;20492;-70
2022/04/15 04:36:09;;;;;;;0.50;0.50;;;8.50;99.90;;;;;;5045373;28;20476;-69
2022/04/15 04:38:57;;;;;;;0.50;0.50;;;8.50;99.90;;;;;;5043254;28;20855;-69
2022/04/15 04:41:45;;;;;;;1.43;1.27;;;8.50;99.90;;;;;;5043841;28;20797;-69
2022/04/15 04:44:34;;;;;;;0.40;0.40;;;8.50;99.90;;;;;;5041068;28;20857;-69
2022/04/15 04:47:24;;;;;;;1.47;1.07;;;8.40;99.90;;;;;;5036056;28;20484;-69
2022/04/15 04:50:12;;;;;;;0.50;0.50;;;8.40;99.90;;;;;;5033378;28;20428;-69
2022/04/15 04:53:00;;;;;;;0.53;0.53;;;8.50;99.90;;;;;;5033920;28;20476;-70
2022/04/15 04:55:49;;;;;;;7.53;7.00;;;8.50;99.90;;;;;;5033728;28;20421;-70
2022/04/15 04:58:37;;;;;;;1.90;1.30;;;8.50;99.90;;;;;;5034120;28;20960;-71
2022/04/15 05:01:25;;;;;;;0.50;0.50;;;8.50;99.90;;;;;;5033743;28;20429;-70
2022/04/15 05:04:15;;;;;;;2.97;2.13;;;8.50;99.90;;;;;;5033064;28;20420;-70
2022/04/15 05:07:03;;;;;;;0.40;0.40;;;8.50;99.90;;;;;;5034641;28;20424;-69
2022/04/15 05:09:52;;;;;;;1.70;1.60;;;8.50;99.90;;;;;;5034318;28;20981;-69
2022/04/15 05:12:40;;;;;;;1.30;1.20;;;8.40;99.90;;;;;;5033786;28;20480;-68
2022/04/15 05:15:28;;;;;;;0.60;0.60;;;8.40;99.90;;;;;;5034307;28;20425;-69
2022/04/15 05:18:17;;;;;;;4.20;2.10;;;8.50;99.90;;;;;;5033556;28;20461;-70
2022/04/15 05:21:06;;;;;;;0.60;0.60;;;8.40;99.90;;;;;;5034111;28;20477;-69
2022/04/15 05:23:54;;;;;;;4.67;1.63;;;8.50;99.90;;;;;;5033488;28;21000;-68
2022/04/15 05:26:42;;;;;;;0.90;0.80;;;8.50;99.90;;;;;;5035681;28;20425;-70
2022/04/15 05:29:31;;;;;;;1.17;1.07;;;8.50;99.90;;;;;;5036310;28;20937;-70
2022/04/15 05:32:22;;;;;;;0.80;0.80;;;8.50;99.90;;;;;;5031626;28;20468;-69
2022/04/15 05:35:10;;;;;;;0.53;0.53;;;8.60;99.90;;;;;;5032458;28;20952;-68
2022/04/15 05:38:00;;;;;;;0.43;0.43;;;8.60;99.90;;;;;;5029922;28;20429;-68
2022/04/15 05:40:48;;;;;;;0.70;0.70;;;8.60;99.90;;;;;;5031893;28;20460;-68
2022/04/15 05:43:37;;;;;;;2.73;1.67;;;8.70;99.90;;;;;;5031407;28;20825;-69
2022/04/15 05:46:27;;;;;;;0.93;0.83;;;8.70;99.90;;;;;;5031253;28;20842;-68
2022/04/15 05:49:16;;;;;;;0.90;0.90;;;8.70;99.90;;;;;;5031193;28;21013;-68
2022/04/15 05:52:05;;;;;;;0.83;0.83;;;8.70;99.90;;;;;;5030793;28;20461;-68
2022/04/15 05:54:55;;;;;;;0.50;0.50;;;8.70;99.90;;;;;;5030367;28;20428;-69
2022/04/15 05:57:43;;;;;;;1.23;1.10;;;8.70;99.90;;;;;;5031282;28;20437;-68
2022/04/15 06:00:31;;;;;;;0.80;0.77;;;8.60;99.90;;;;;;5029947;28;20432;-69
2022/04/15 06:03:20;;;;;;;0.47;0.47;;;8.60;99.90;;;;;;5030102;28;21036;-67
2022/04/15 06:06:08;;;;;;;1.13;1.13;;;8.70;99.90;;;;;;5031166;28;20425;-68
2022/04/15 06:08:56;;;;;;;4.00;1.13;;;8.80;99.90;;;;;;5030093;28;20500;-69
2022/04/15 06:11:46;;;;;;;1.93;1.53;;;8.80;99.90;;;;;;5029707;28;20476;-68
2022/04/15 06:14:36;;;;;;;0.40;0.40;;;8.90;99.90;;;;;;5029767;28;20457;-68
2022/04/15 06:17:24;;;;;;;1.53;0.87;;;8.90;99.90;;;;;;5031550;28;20425;-70
2022/04/15 06:20:12;;;;;;;0.73;0.73;;;9.00;99.90;;;;;;5030567;28;20460;-68
2022/04/15 06:23:00;;;;;;;1.77;1.67;;;9.10;99.90;;;;;;5030770;28;21044;-67
2022/04/15 06:25:48;;;;;;;2.43;1.20;;;9.10;99.90;;;;;;5031511;28;20809;-68
2022/04/15 06:28:38;;;;;;;1.13;1.10;;;9.00;99.90;;;;;;5031988;28;20429;-69
2022/04/15 06:31:26;;;;;;;0.80;0.77;;;9.10;99.90;;;;;;5032920;28;20425;-69
2022/04/15 06:34:14;;;;;;;3.80;1.60;;;9.10;99.90;;;;;;5032572;28;20464;-70
2022/04/15 06:37:02;;;;;;;0.93;0.93;;;9.10;99.90;;;;;;5032970;28;20969;-71
2022/04/15 06:39:54;;;;;;;1.13;1.13;;;9.10;99.90;;;;;;5032386;28;20532;-69
2022/04/15 06:42:42;;;;;;;1.60;1.33;;;9.20;99.90;;;;;;5031267;28;20464;-69
2022/04/15 06:45:32;;;;;;;0.57;0.57;;;9.10;99.90;;;;;;5030427;28;20436;-69
2022/04/15 06:48:20;;;;;;;1.63;1.23;;;9.30;99.90;;;;;;5033408;28;20425;-68
2022/04/15 06:51:08;;;;;;;3.50;1.90;;;9.30;99.90;;;;;;5034138;28;20428;-69
2022/04/15 06:53:56;;;;;;;0.80;0.70;;;9.30;99.90;;;;;;5035665;28;20484;-68
2022/04/15 06:56:45;;;;;;;0.50;0.50;;;9.30;99.90;;;;;;5035109;28;20430;-68
2022/04/15 06:59:37;;;;;;;2.50;2.30;;;9.30;99.90;;;;;;5035580;28;20436;-68
2022/04/15 07:02:27;;;;;;;2.33;2.13;;;9.30;99.90;;;;;;5035026;28;20499;-68
2022/04/15 07:05:15;;;;;;;1.07;1.07;;;9.30;99.90;;;;;;5035764;28;20941;-68
2022/04/15 07:08:03;;;;;;;0.73;0.73;;;9.30;99.90;;;;;;5035292;28;20460;-69
2022/04/15 07:10:53;;;;;;;2.00;1.67;;;9.30;99.90;;;;;;5035590;28;20452;-69
2022/04/15 07:13:41;;;;;;;2.20;1.03;;;9.40;99.90;;;;;;5033459;28;20467;-68
2022/04/15 07:16:29;;;;;;;0.87;0.80;;;9.30;99.90;;;;;;5034407;28;20471;-68
2022/04/15 07:19:19;;;;;;;4.03;3.17;;;9.30;99.90;;;;;;5034506;28;20421;-69
2022/04/15 07:22:07;;;;;;;3.43;2.07;;;9.20;99.90;;;;;;5035150;28;20445;-68
2022/04/15 07:24:55;;;;;;;0.60;0.60;;;9.30;99.90;;;;;;5034831;28;20797;-68
2022/04/15 07:27:43;;;;;;;0.50;0.50;;;9.30;99.90;;;;;;5034477;28;20483;-69
2022/04/15 07:30:31;;;;;;;0.57;0.57;;;9.40;99.90;;;;;;5033215;28;20417;-68
2022/04/15 07:33:20;;;;;;;0.50;0.50;;;9.40;99.90;;;;;;5032280;28;20472;-67
2022/04/15 07:36:31;;;;;;;1.90;1.17;;;9.50;99.90;;;;;;5034761;28;20790;-68
2022/04/15 07:39:19;;;;;;;2.93;1.90;;;9.60;99.90;;;;;;5033647;28;20432;-68
2022/04/15 07:42:08;;;;;;;1.20;1.00;;;9.50;99.90;;;;;;5033264;28;20448;-68
2022/04/15 07:44:56;;;;;;;0.50;0.50;;;9.50;99.90;;;;;;5033156;28;20428;-67
2022/04/15 07:47:44;;;;;;;1.70;1.33;;;9.40;99.90;;;;;;5033270;28;20429;-68
2022/04/15 07:50:38;;;;;;;0.77;0.77;;;9.40;99.90;;;;;;5033185;28;20797;-68
2022/04/15 07:53:28;;;;;;;2.60;1.07;;;9.50;99.90;;;;;;5031891;28;20471;-68
2022/04/15 07:56:16;;;;;;;2.10;1.57;;;9.50;99.90;;;;;;5032757;28;20444;-69
2022/04/15 07:59:05;;;;;;;0.60;0.60;;;9.50;99.90;;;;;;5033555;28;20417;-69
2022/04/15 08:01:53;;;;;;;1.00;0.87;;;9.40;99.90;;;;;;5033595;28;20457;-68
2022/04/15 08:04:42;;;;;;;4.93;4.40;;;9.40;99.90;;;;;;5033830;28;20429;-69
2022/04/15 08:07:30;;;;;;;2.17;1.90;;;9.50;99.90;;;;;;5033952;28;20467;-68
2022/04/15 08:10:19;;;;;;;2.27;2.07;;;9.40;99.90;;;;;;5033139;28;20479;-68
2022/04/15 08:13:08;;;;;;;2.20;1.67;;;9.40;99.90;;;;;;5032316;28;20448;-69
2022/04/15 08:15:56;;;;;;;0.80;0.57;;;9.40;99.90;;;;;;5032242;28;20918;-68
2022/04/15 08:18:45;;;;;;;0.40;0.40;;;9.50;99.90;;;;;;5033181;28;20811;-68
2022/04/15 08:21:34;;;;;;;0.50;0.50;;;9.60;99.90;;;;;;5032897;28;20431;-70
2022/04/15 08:24:22;;;;;;;0.80;0.80;;;9.60;99.90;;;;;;5033297;28;20464;-69
2022/04/15 08:27:11;;;;;;;1.40;1.30;;;9.70;99.90;;;;;;5032661;28;20429;-69
2022/04/15 08:29:59;;;;;;;2.73;0.90;;;9.70;99.90;;;;;;5036192;28;20622;-67
2022/04/15 08:32:51;;;;;;;1.37;1.37;;;9.70;99.90;;;;;;5034192;28;20468;-68
2022/04/15 08:35:39;;;;;;;0.40;0.40;;;9.70;99.90;;;;;;5032461;28;20672;-68
2022/04/15 08:38:27;;;;;;;5.57;2.97;;;9.60;99.90;;;;;;5031915;28;20436;-68
2022/04/15 08:41:18;;;;;;;6.83;4.00;;;9.60;99.90;;;;;;5032673;28;20425;-68
2022/04/15 08:44:08;;;;;;;1.37;1.37;;;9.60;99.90;;;;;;5033399;28;20477;-67
2022/04/15 08:46:58;;;;;;;4.50;3.10;;;9.50;99.90;;;;;;5032578;28;20425;-68
2022/04/15 08:49:47;;;;;;;2.10;1.13;;;9.40;99.90;;;;;;5032458;28;20841;-68
2022/04/15 08:52:36;;;;;;;5.90;1.57;;;9.40;99.90;;;;;;5032043;28;20516;-69
2022/04/15 08:55:27;;;;;;;0.40;0.40;;;9.40;99.90;;;;;;5033333;28;20472;-69
2022/04/15 08:58:15;;;;;;;3.23;2.93;;;9.40;99.90;;;;;;5034978;28;20425;-68
2022/04/15 09:01:07;;;;;;;0.80;0.80;;;9.50;99.90;;;;;;5033549;28;20432;-69
2022/04/15 09:03:56;;;;;;;0.40;0.40;;;9.50;99.90;;;;;;5033015;28;20528;-69
2022/04/15 09:06:44;;;;;;;1.00;1.00;;;9.50;99.90;;;;;;5033582;28;20852;-69
2022/04/15 09:09:33;;;;;;;3.03;1.90;;;9.60;99.90;;;;;;5033066;28;20476;-69
2022/04/15 09:12:25;;;;;;;2.60;2.10;;;9.60;99.90;;;;;;5033697;28;20452;-68
2022/04/15 09:15:15;;;;;;;3.23;0.80;;;9.60;99.90;;;;;;5033089;28;20465;-68
2022/04/15 09:18:06;;;;;;;3.90;2.67;;;9.60;99.90;;;;;;5034704;28;20437;-68
2022/04/15 09:21:13;;;;;;;1.53;1.20;;;9.60;99.90;;;;;;5034018;28;20425;-68
2022/04/15 09:24:01;;;;;;;1.73;1.37;;;9.50;99.90;;;;;;5031843;28;20429;-68
2022/04/15 09:26:53;;;;;;;0.47;0.47;;;9.50;99.90;;;;;;5013944;28;20422;-68
2022/04/15 09:29:41;;;;;;;2.47;2.00;;;9.60;99.90;;;;;;5012844;28;20426;-68
2022/04/15 09:32:30;;;;;;;4.77;2.53;;;9.70;99.90;;;;;;5013471;28;20446;-69
2022/04/15 09:35:19;;;;;;;1.93;1.83;;;9.70;99.90;;;;;;5014139;28;20458;-69
2022/04/15 09:38:07;;;;;;;0.97;0.97;;;9.70;99.90;;;;;;5012520;28;20458;-68
2022/04/15 09:40:59;;;;;;;2.80;1.30;;;9.70;99.90;;;;;;5013511;28;20497;-69
2022/04/15 09:43:53;;;;;;;1.70;1.60;;;9.70;99.90;;;;;;5012252;28;20453;-68
2022/04/15 09:46:42;;;;;;;5.27;1.50;;;9.70;99.90;;;;;;5013072;28;20898;-68
2022/04/15 09:49:34;;;;;;;3.60;3.20;;;9.70;99.90;;;;;;5012957;28;20469;-69
2022/04/15 09:52:26;;;;;;;2.43;2.13;;;9.80;99.90;;;;;;5012315;28;20465;-68
2022/04/15 09:55:17;;;;;;;5.37;3.27;;;9.70;99.90;;;;;;5013666;28;20529;-69
2022/04/15 09:58:09;;;;;;;2.00;1.13;;;9.70;99.90;;;;;;5013699;28;20485;-68
2022/04/15 10:01:01;;;;;;;0.77;0.77;;;9.80;99.90;;;;;;5013205;28;20481;-69
2022/04/15 10:03:51;;;;;;;3.03;1.03;;;9.80;99.90;;;;;;5013734;28;20454;-68
2022/04/15 10:06:40;;;;;;;0.50;0.50;;;9.90;99.90;;;;;;5014145;28;20489;-69
2022/04/15 10:09:30;;;;;;;5.90;4.13;;;9.90;99.90;;;;;;5012433;28;20426;-70
2022/04/15 10:12:19;;;;;;;2.57;1.77;;;9.90;99.90;;;;;;5012034;28;20453;-68
2022/04/15 10:15:10;;;;;;;1.00;0.70;;;9.90;99.90;;;;;;5012847;28;20542;-67
2022/04/15 10:17:59;;;;;;;3.00;2.80;;;9.90;99.90;;;;;;5011220;28;20433;-67
2022/04/15 10:20:48;;;;;;;3.50;2.77;;;9.80;99.90;;;;;;5013000;28;20569;-67
2022/04/15 10:23:36;;;;;;;0.40;0.40;;;9.70;99.90;;;;;;5014084;28;20448;-68
2022/04/15 10:26:25;;;;;;;2.97;1.47;;;9.70;99.90;;;;;;5032209;28;20527;-68
2022/04/15 10:29:14;;;;;;;1.53;1.23;;;9.80;99.90;;;;;;5036548;28;20421;-68
2022/04/15 10:32:13;;;;;;;5.03;3.27;;;9.80;99.90;;;;;;5035955;28;20460;-68
2022/04/15 10:35:08;;;;;;;0.90;0.60;;;9.80;99.90;;;;;;5036240;28;20456;-68
2022/04/15 10:38:00;;;;;;;1.60;1.60;;;9.80;99.90;;;;;;5037463;28;20512;-68
2022/04/15 10:40:50;;;;;;;0.60;0.60;;;9.80;99.90;;;;;;5035259;28;20432;-68
2022/04/15 10:43:56;;;;;;;2.00;1.87;;;9.80;99.90;;;;;;5035375;28;20441;-69
2022/04/15 10:46:44;;;;;;;0.40;0.40;;;9.70;99.90;;;;;;5035571;28;20417;-68
2022/04/15 10:49:35;;;;;;;2.10;1.83;;;9.60;99.90;;;;;;5036268;28;20431;-68
2022/04/15 10:52:25;;;;;;;1.63;1.53;;;9.50;99.90;;;;;;5036090;28;20472;-68
2022/04/15 10:55:15;;;;;;;0.60;0.60;;;9.50;99.90;;;;;;5036420;28;20473;-69
2022/04/15 10:58:13;;;;;;;3.30;2.50;;;9.50;99.90;;;;;;5035535;28;20959;-69
2022/04/15 11:01:20;;;;;;;2.80;1.00;;;9.40;99.90;;;;;;5036535;28;20429;-68
2022/04/15 11:04:09;;;;;;;0.70;0.70;;;9.50;99.90;;;;;;5035378;28;20425;-69
2022/04/15 11:06:59;;;;;;;1.37;1.27;;;9.60;99.90;;;;;;5035459;28;20421;-68
2022/04/15 11:09:47;;;;;;;1.43;1.33;;;9.80;99.90;;;;;;5035914;28;20933;-69
2022/04/15 11:12:43;;;;;;;3.87;1.27;;;9.90;99.90;;;;;;5036283;28;20448;-69
2022/04/15 11:15:52;;;;;;;0.40;0.40;;;9.80;99.90;;;;;;5034807;28;20527;-68
2022/04/15 11:18:51;;;;;;;0.50;0.50;;;9.80;99.90;;;;;;5035012;28;20952;-69
2022/04/15 11:21:50;;;;;;;1.63;1.27;;;9.80;99.90;;;;;;5037078;28;20853;-69
2022/04/15 11:24:41;;;;;;;0.40;0.40;;;9.70;99.90;;;;;;5033904;28;20457;-68
2022/04/15 11:27:35;;;;;;;3.93;3.07;;;9.60;99.90;;;;;;5034818;28;20429;-69
2022/04/15 11:30:24;;;;;;;0.77;0.77;;;9.40;99.90;;;;;;5032963;28;20433;-68
2022/04/15 11:33:12;;;;;;;2.50;2.27;;;9.30;99.90;;;;;;5034221;28;20511;-68
2022/04/15 11:36:01;;;;;;;0.80;0.50;;;9.10;99.90;;;;;;5033812;28;20497;-69
2022/04/15 11:38:51;;;;;;;1.10;1.03;;;9.10;99.90;;;;;;5035337;28;20967;-69
2022/04/15 11:41:44;;;;;;;0.80;0.77;;;9.00;99.90;;;;;;5034121;28;20424;-69
2022/04/15 11:44:33;;;;;;;0.97;0.70;;;9.00;99.90;;;;;;5035164;28;20436;-69
2022/04/15 11:47:24;;;;;;;0.70;0.70;;;9.00;99.90;;;;;;5035509;28;20425;-69
2022/04/15 11:50:12;;;;;;;4.67;1.57;;;9.00;99.90;;;;;;5035316;28;20417;-68
2022/04/15 11:53:07;;;;;;;1.50;1.27;;;9.00;99.90;;;;;;5036258;28;20467;-68
2022/04/15 11:55:58;;;;;;;1.70;1.43;;;9.00;99.90;;;;;;5036514;28;20567;-69
2022/04/15 11:58:46;;;;;;;0.80;0.80;;;9.00;99.90;;;;;;5035075;28;20497;-70
2022/04/15 12:01:34;;;;;;;1.60;1.50;;;9.10;99.90;;;;;;5035209;28;20484;-69
2022/04/15 12:04:22;;;;;;;0.50;0.50;;;9.20;99.90;;;;;;5035697;28;20454;-69
2022/04/15 12:07:14;;;;;;;1.23;1.23;;;9.10;99.90;;;;;;5035745;28;20417;-71
2022/04/15 12:10:05;;;;;;;2.30;1.73;;;8.90;99.90;;;;;;5036939;28;20476;-68
2022/04/15 12:12:58;;;;;;;0.50;0.50;;;9.00;99.90;;;;;;5037194;28;20449;-69
2022/04/15 12:15:46;;;;;;;2.43;1.40;;;9.10;99.90;;;;;;5036897;28;20504;-69
2022/04/15 12:18:35;;;;;;;3.97;3.57;;;9.10;99.90;;;;;;5035736;28;20423;-68
2022/04/15 12:21:25;;;;;;;0.97;0.87;;;9.20;99.90;;;;;;5036937;28;20449;-68
2022/04/15 12:24:22;;;;;;;1.43;1.33;;;9.20;99.90;;;;;;5033471;28;20429;-69
2022/04/15 12:27:16;;;;;;;1.63;0.90;;;9.30;99.90;;;;;;5014058;28;20418;-71
2022/04/15 12:30:05;;;;;;;2.20;2.00;;;9.20;99.90;;;;;;5015398;28;20799;-68
2022/04/15 12:33:07;;;;;;;3.30;2.67;;;9.20;99.90;;;;;;5014125;28;20501;-69
2022/04/15 12:36:00;;;;;;;0.40;0.40;;;9.20;99.90;;;;;;5016109;28;20535;-71
2022/04/15 12:39:03;;;;;;;1.73;1.53;;;9.10;99.90;;;;;;5017045;28;20433;-69
2022/04/15 12:41:51;;;;;;;2.70;1.70;;;9.10;99.90;;;;;;5015363;28;20421;-69
2022/04/15 12:44:40;;;;;;;2.73;2.63;;;9.10;99.90;;;;;;5018671;28;20433;-70
2022/04/15 12:47:29;;;;;;;2.83;2.03;;;9.20;99.90;;;;;;5015004;28;20491;-70
2022/04/15 12:50:19;;;;;;;1.80;1.17;;;9.30;99.90;;;;;;5017271;28;20951;-70
2022/04/15 12:53:14;;;;;;;2.00;1.53;;;9.30;99.90;;;;;;5016539;28;20541;-69
2022/04/15 12:56:11;;;;;;;0.50;0.50;;;9.50;99.90;;;;;;5015943;28;20457;-69
2022/04/15 12:58:59;;;;;;;1.20;1.00;;;9.70;99.90;;;;;;5018480;28;20426;-71
2022/04/15 13:01:48;;;;;;;1.20;0.70;;;9.80;99.90;;;;;;5018237;28;20422;-70
2022/04/15 13:04:37;;;;;;;1.47;1.37;;;9.90;99.90;;;;;;5017313;28;20445;-69
2022/04/15 13:07:25;;;;;;;2.77;2.23;;;9.90;99.90;;;;;;5017111;28;20437;-69
2022/04/15 13:10:14;;;;;;;0.50;0.50;;;10.00;99.90;;;;;;5016757;28;20849;-70
2022/04/15 13:13:22;;;;;;;0.40;0.40;;;10.00;99.90;;;;;;5015939;28;20970;-70
2022/04/15 13:16:11;;;;;;;1.37;1.27;;;10.10;99.90;;;;;;5018181;28;20461;-69
2022/04/15 13:19:00;;;;;;;1.60;1.50;;;10.20;99.90;;;;;;5018344;28;20462;-68
2022/04/15 13:21:48;;;;;;;1.17;0.60;;;10.30;99.90;;;;;;5017366;28;20422;-70
2022/04/15 13:24:37;;;;;;;1.03;0.97;;;10.30;99.90;;;;;;5020054;28;20450;-70
2022/04/15 13:27:25;;;;;;;0.70;0.70;;;10.40;99.90;;;;;;5035844;28;20425;-69
2022/04/15 13:30:14;;;;;;;3.23;1.60;;;10.50;99.90;;;;;;5037657;28;20433;-70
2022/04/15 13:33:03;;;;;;;1.57;1.23;;;10.40;99.90;;;;;;5035857;28;20445;-69
2022/04/15 13:35:53;;;;;;;0.40;0.40;;;10.20;99.90;;;;;;5037387;28;20523;-69
2022/04/15 13:38:41;;;;;;;0.40;0.40;;;10.30;99.90;;;;;;5035933;28;20803;-70
2022/04/15 13:41:29;;;;;;;1.57;1.47;;;10.40;99.90;;;;;;5037396;28;20417;-70
2022/04/15 13:44:17;;;;;;;0.40;0.40;;;10.40;99.90;;;;;;5036895;28;20433;-70
2022/04/15 13:47:06;;;;;;;5.40;1.03;;;10.30;99.90;;;;;;5032098;28;20488;-72
2022/04/15 13:49:54;;;;;;;1.27;1.20;;;10.20;99.90;;;;;;5034311;28;20440;-73
2022/04/15 13:58:56;;;;;;;1.63;1.47;;;10.00;99.90;;;;;;5012732;28;20422;-71
2022/04/15 14:01:46;;;;;;;0.50;0.50;;;9.90;99.90;;;;;;5012944;28;20430;-69
2022/04/15 14:04:35;;;;;;;0.40;0.40;;;9.80;99.90;;;;;;5013230;28;20426;-70
2022/04/15 14:07:23;;;;;;;0.90;0.70;;;9.80;99.90;;;;;;5013651;28;20539;-69
2022/04/15 14:10:13;;;;;;;8.73;1.83;;;9.80;99.90;;;;;;5014929;28;20489;-69
2022/04/15 14:13:02;;;;;;;0.67;0.60;;;10.10;99.90;;;;;;5013701;28;20450;-70
2022/04/15 14:15:51;;;;;;;0.50;0.50;;;10.30;99.90;;;;;;5016935;28;20437;-69
2022/04/15 14:18:39;;;;;;;1.87;1.63;;;10.40;99.90;;;;;;5014908;28;20418;-71
2022/04/15 14:21:28;;;;;;;2.10;1.33;;;10.40;99.90;;;;;;5016975;28;20489;-70
2022/04/15 14:24:16;;;;;;;1.07;0.97;;;10.40;99.90;;;;;;5015156;28;20434;-68
2022/04/15 14:27:06;;;;;;;2.37;2.27;;;10.60;99.90;;;;;;5016397;28;20418;-69
2022/04/15 14:29:55;;;;;;;1.13;1.13;;;10.60;99.90;;;;;;5015370;28;21081;-70
2022/04/15 14:32:43;;;;;;;0.50;0.50;;;10.40;99.90;;;;;;5015804;28;20814;-72
2022/04/15 14:35:31;;;;;;;1.13;0.77;;;10.40;99.90;;;;;;5016982;28;20426;-71
2022/04/15 14:38:20;;;;;;;1.60;1.47;;;10.50;99.90;;;;;;5015619;28;21053;-70
2022/04/15 14:41:09;;;;;;;0.80;0.80;;;10.40;99.90;;;;;;5016216;28;21022;-70
2022/04/15 14:43:58;;;;;;;1.23;1.03;;;10.30;99.90;;;;;;5013332;28;20472;-70
2022/04/15 14:46:47;;;;;;;1.80;1.13;;;10.20;99.90;;;;;;5014376;28;20498;-71
2022/04/15 14:49:36;;;;;;;0.80;0.80;;;10.00;99.90;;;;;;5013899;28;20430;-70
2022/04/15 14:52:24;;;;;;;0.93;0.93;;;9.90;99.90;;;;;;5013046;28;20982;-71
2022/04/15 14:55:12;;;;;;;2.67;1.33;;;9.80;99.90;;;;;;5013732;28;20421;-71
2022/04/15 14:58:00;;;;;;;1.03;1.03;;;9.70;99.90;;;;;;5013004;28;20473;-71